East Stroudsburg, PA (18301)

9:35 PM EDT on March 28, 2015 (GMT -0400)
Pocono Heights, Middle Smithfield Township | | Change Station
CLOSE
Current Station
Personal Weather Station
Location: East Stroudsburg, PA
Elevation: 981 ft
Nearby Weather Stations

Elev 981 ft 41.07 °N, 75.13 °W | Updated 15 seconds ago

Overcast
Overcast
21.9 °F
Feels Like 22 °F
N
0.0
Wind Variable Wind from ENE
Gusts 0.0 mph

Today
High -- | Low -- °F
--% Chance of Precip.
Yesterday
High -- | Low -- °F
Precip. -- in
6:51 AM 7:21 PM
Waxing Gibbous, 67% visible
Pressure 30.08 in
Visibility 10.0 miles
Clouds Overcast 6000 ft
Windchill 22 °F
Dew Point 3 °F
Humidity 43%
Rainfall 0.00 in
Snow Depth Not available.
UV 0.0 out of 12
Pollen 8.80 out of 12
Air Quality Not available.
Flu Activity Not available.
METAR KMPO 290053Z AUTO 33016G25KT 10SM OVC060 M08/M16 A2999 RMK AO2 PK WND 33027/2356 SLP185 T10781156

More Conditions Fewer Conditions

Pressure 30.08 in
Visibility 10.0 miles
Clouds Overcast 6000 ft
Windchill 22 °F
Dew Point 3 °F
Humidity 43%
Rainfall 0.00 in
Snow Depth Not available.
UV 0.0 out of 12
Pollen 8.80 out of 12
Air Quality Not available.
Flu Activity Not available.
METAR KMPO 290053Z AUTO 33016G25KT 10SM OVC060 M08/M16 A2999 RMK AO2 PK WND 33027/2356 SLP185 T10781156

More Conditions Fewer Conditions

Nowcast | as of 7:09 PM EDT on March 28, 2015

Isolated snow showers or flurries can be expected through the evening hours. No accumulation is expected. Northwest winds will continue to gust between 20 and 30 mph at times as temperatures continue to slowly drop.

×

10-Day Weather Forecast

Almanac

Astronomy

Mar. 28, 2015 Rise Set
Actual Time
Civil Twilight
Nautical Twilight
Astronomical Twilight
Moon
Length of Visible Light
Length of Day
Tomorrow will be .
, % of the Moon is Illuminated

Today's Extremes

State Highs State Lows

Community

WunderPhotos

Upload Photos

1,809,150 photos uploaded!

WunderBlogs® & News

Nearby

Air Quality

  Air Quality AQ Index Pollutant
Not available.

Snow Depth

Station Depth Elevation

Earthquake Activity

City Distance Mag. Time & Date
Minimum magnitude displayed is 2.5.

Coastal Water Temperatures

Place Temperature

Stations

Nearby Weather Stations

Station Location Temp. Windchill Dew Point Humidity Wind Precip. Elev Updated Type